Terminal Aerodrome Forecast
Issued by NWS

Home | Current Version | Previous Version | Text Only | Print | Product List | Glossary On
Versions: 1 2 3 4 5 6 7 8 9 10 11 12 13 14 15 16 17 18 19 20 21 22 23 24 25 26
004
FTUS41 KPBZ 021917 AAA
TAFZZV
TAF AMD
KZZV 021917Z 0219/0318 32008KT P6SM SCT025 BKN050
      TEMPO 0219/0221 BKN025 BKN050
     FM022300 34005KT P6SM BKN050=

USA.gov is the U.S. government's official web portal to all federal, state and local government web resources and services.